sensor_id;sensor_type;location;lat;lon;timestamp;temperature;humidity
65995;HTU21D;52764;51.036;5.852;2023-06-14T00:00:51;22.36;43.05
65995;HTU21D;52764;51.036;5.852;2023-06-14T00:03:18;22.29;43.18
65995;HTU21D;52764;51.036;5.852;2023-06-14T00:05:48;22.24;43.33
65995;HTU21D;52764;51.036;5.852;2023-06-14T00:08:14;22.13;43.47
65995;HTU21D;52764;51.036;5.852;2023-06-14T00:10:40;22.12;43.67
65995;HTU21D;52764;51.036;5.852;2023-06-14T00:13:08;22.09;43.92
65995;HTU21D;52764;51.036;5.852;2023-06-14T00:15:34;22.06;44.01
65995;HTU21D;52764;51.036;5.852;2023-06-14T00:18:01;22.04;44.13
65995;HTU21D;52764;51.036;5.852;2023-06-14T00:20:27;21.99;44.38
65995;HTU21D;52764;51.036;5.852;2023-06-14T00:22:54;21.94;44.70
65995;HTU21D;52764;51.036;5.852;2023-06-14T00:25:22;21.90;44.95
65995;HTU21D;52764;51.036;5.852;2023-06-14T00:27:49;21.82;45.34
65995;HTU21D;52764;51.036;5.852;2023-06-14T00:30:15;21.70;45.73
65995;HTU21D;52764;51.036;5.852;2023-06-14T00:32:40;21.62;45.94
65995;HTU21D;52764;51.036;5.852;2023-06-14T00:35:09;21.55;46.04
65995;HTU21D;52764;51.036;5.852;2023-06-14T00:37:36;21.52;46.29
65995;HTU21D;52764;51.036;5.852;2023-06-14T00:40:02;21.51;46.48
65995;HTU21D;52764;51.036;5.852;2023-06-14T00:42:30;21.51;46.58
65995;HTU21D;52764;51.036;5.852;2023-06-14T00:44:56;21.47;46.72
65995;HTU21D;52764;51.036;5.852;2023-06-14T00:47:23;21.38;47.05
65995;HTU21D;52764;51.036;5.852;2023-06-14T00:49:51;21.23;47.38
65995;HTU21D;52764;51.036;5.852;2023-06-14T00:52:18;21.07;48.01
65995;HTU21D;52764;51.036;5.852;2023-06-14T00:54:44;20.89;48.38
65995;HTU21D;52764;51.036;5.852;2023-06-14T00:57:10;20.70;48.68
65995;HTU21D;52764;51.036;5.852;2023-06-14T01:02:08;20.53;49.11
65995;HTU21D;52764;51.036;5.852;2023-06-14T01:04:37;20.54;49.22
65995;HTU21D;52764;51.036;5.852;2023-06-14T01:15:33;20.60;47.84
65995;HTU21D;52764;51.036;5.852;2023-06-14T01:18:00;20.54;47.57
65995;HTU21D;52764;51.036;5.852;2023-06-14T01:20:31;20.46;47.69
65995;HTU21D;52764;51.036;5.852;2023-06-14T01:22:57;20.47;47.73
65995;HTU21D;52764;51.036;5.852;2023-06-14T01:25:23;20.48;47.83
65995;HTU21D;52764;51.036;5.852;2023-06-14T01:27:58;20.48;48.05
65995;HTU21D;52764;51.036;5.852;2023-06-14T01:30:26;20.44;47.98
65995;HTU21D;52764;51.036;5.852;2023-06-14T01:32:54;20.40;48.00
65995;HTU21D;52764;51.036;5.852;2023-06-14T01:35:21;19.05;48.05
65995;HTU21D;52764;51.036;5.852;2023-06-14T01:37:49;20.42;48.15
65995;HTU21D;52764;51.036;5.852;2023-06-14T01:40:17;20.46;48.08
65995;HTU21D;52764;51.036;5.852;2023-06-14T01:42:47;20.49;48.21
65995;HTU21D;52764;51.036;5.852;2023-06-14T01:45:15;20.49;48.34
65995;HTU21D;52764;51.036;5.852;2023-06-14T01:47:43;20.45;48.35
65995;HTU21D;52764;51.036;5.852;2023-06-14T01:50:10;20.42;48.52
65995;HTU21D;52764;51.036;5.852;2023-06-14T01:52:37;20.39;48.66
65995;HTU21D;52764;51.036;5.852;2023-06-14T01:55:04;20.39;48.63
65995;HTU21D;52764;51.036;5.852;2023-06-14T01:57:31;20.39;48.57
65995;HTU21D;52764;51.036;5.852;2023-06-14T01:59:58;20.32;48.82
65995;HTU21D;52764;51.036;5.852;2023-06-14T02:02:24;20.30;48.89
65995;HTU21D;52764;51.036;5.852;2023-06-14T02:04:50;20.26;49.06
65995;HTU21D;52764;51.036;5.852;2023-06-14T02:07:15;20.22;49.37
65995;HTU21D;52764;51.036;5.852;2023-06-14T02:09:41;20.17;49.63
65995;HTU21D;52764;51.036;5.852;2023-06-14T02:12:08;20.13;49.65
65995;HTU21D;52764;51.036;5.852;2023-06-14T02:14:34;20.09;49.69
65995;HTU21D;52764;51.036;5.852;2023-06-14T02:16:59;20.03;49.92
65995;HTU21D;52764;51.036;5.852;2023-06-14T02:19:26;19.95;50.02
65995;HTU21D;52764;51.036;5.852;2023-06-14T02:21:52;19.89;50.05
65995;HTU21D;52764;51.036;5.852;2023-06-14T02:24:18;19.84;50.37
65995;HTU21D;52764;51.036;5.852;2023-06-14T02:26:44;19.79;50.65
65995;HTU21D;52764;51.036;5.852;2023-06-14T02:29:14;19.72;50.85
65995;HTU21D;52764;51.036;5.852;2023-06-14T02:31:40;19.68;51.26
65995;HTU21D;52764;51.036;5.852;2023-06-14T02:34:06;19.60;51.16
65995;HTU21D;52764;51.036;5.852;2023-06-14T02:36:34;19.56;51.09
65995;HTU21D;52764;51.036;5.852;2023-06-14T02:39:00;19.52;51.16
65995;HTU21D;52764;51.036;5.852;2023-06-14T02:41:26;19.48;51.46
65995;HTU21D;52764;51.036;5.852;2023-06-14T02:43:53;19.43;51.97
65995;HTU21D;52764;51.036;5.852;2023-06-14T02:46:19;19.36;52.30
65995;HTU21D;52764;51.036;5.852;2023-06-14T02:48:44;19.30;52.63
65995;HTU21D;52764;51.036;5.852;2023-06-14T02:51:10;19.25;53.04
65995;HTU21D;52764;51.036;5.852;2023-06-14T02:53:36;19.23;52.61
65995;HTU21D;52764;51.036;5.852;2023-06-14T02:56:03;19.22;52.27
65995;HTU21D;52764;51.036;5.852;2023-06-14T02:58:30;19.25;52.01
65995;HTU21D;52764;51.036;5.852;2023-06-14T03:00:55;19.27;52.06
65995;HTU21D;52764;51.036;5.852;2023-06-14T03:03:22;19.28;52.07
65995;HTU21D;52764;51.036;5.852;2023-06-14T03:05:53;19.25;52.27
65995;HTU21D;52764;51.036;5.852;2023-06-14T03:08:23;19.21;52.60
65995;HTU21D;52764;51.036;5.852;2023-06-14T03:10:52;19.15;52.78
65995;HTU21D;52764;51.036;5.852;2023-06-14T03:13:18;19.10;52.93
65995;HTU21D;52764;51.036;5.852;2023-06-14T03:15:48;19.10;52.79
65995;HTU21D;52764;51.036;5.852;2023-06-14T03:18:18;19.10;52.69
65995;HTU21D;52764;51.036;5.852;2023-06-14T03:20:45;19.12;52.70
65995;HTU21D;52764;51.036;5.852;2023-06-14T03:23:12;19.12;52.82
65995;HTU21D;52764;51.036;5.852;2023-06-14T03:25:39;19.15;52.84
65995;HTU21D;52764;51.036;5.852;2023-06-14T03:28:08;19.16;52.85
65995;HTU21D;52764;51.036;5.852;2023-06-14T03:30:34;19.13;52.83
65995;HTU21D;52764;51.036;5.852;2023-06-14T03:33:01;19.11;52.84
65995;HTU21D;52764;51.036;5.852;2023-06-14T03:35:29;19.09;53.06
65995;HTU21D;52764;51.036;5.852;2023-06-14T03:37:54;19.08;53.01
65995;HTU21D;52764;51.036;5.852;2023-06-14T03:40:20;19.15;52.72
65995;HTU21D;52764;51.036;5.852;2023-06-14T03:42:50;19.17;52.75
65995;HTU21D;52764;51.036;5.852;2023-06-14T03:45:15;19.22;52.65
65995;HTU21D;52764;51.036;5.852;2023-06-14T03:47:41;19.27;52.53
65995;HTU21D;52764;51.036;5.852;2023-06-14T03:50:08;19.37;52.66
65995;HTU21D;52764;51.036;5.852;2023-06-14T03:52:34;19.61;52.48
65995;HTU21D;52764;51.036;5.852;2023-06-14T03:55:00;19.97;51.63
65995;HTU21D;52764;51.036;5.852;2023-06-14T03:57:27;20.39;50.42
65995;HTU21D;52764;51.036;5.852;2023-06-14T03:59:54;20.74;49.63
65995;HTU21D;52764;51.036;5.852;2023-06-14T04:02:22;21.09;48.79
65995;HTU21D;52764;51.036;5.852;2023-06-14T04:04:48;21.45;47.84
65995;HTU21D;52764;51.036;5.852;2023-06-14T04:07:17;21.81;46.81
65995;HTU21D;52764;51.036;5.852;2023-06-14T04:09:46;22.24;45.83
65995;HTU21D;52764;51.036;5.852;2023-06-14T04:12:12;22.66;44.86
65995;HTU21D;52764;51.036;5.852;2023-06-14T04:14:39;23.08;43.90
65995;HTU21D;52764;51.036;5.852;2023-06-14T04:17:07;23.47;42.96
65995;HTU21D;52764;51.036;5.852;2023-06-14T04:19:33;23.83;41.99
65995;HTU21D;52764;51.036;5.852;2023-06-14T04:21:59;24.18;41.07
65995;HTU21D;52764;51.036;5.852;2023-06-14T04:24:29;24.51;40.38
65995;HTU21D;52764;51.036;5.852;2023-06-14T04:26:59;24.79;39.58
65995;HTU21D;52764;51.036;5.852;2023-06-14T04:29:25;24.87;38.49
65995;HTU21D;52764;51.036;5.852;2023-06-14T04:31:58;24.84;38.28
65995;HTU21D;52764;51.036;5.852;2023-06-14T04:34:26;24.87;38.29
65995;HTU21D;52764;51.036;5.852;2023-06-14T04:36:56;25.14;38.59
65995;HTU21D;52764;51.036;5.852;2023-06-14T04:39:29;25.62;37.91
65995;HTU21D;52764;51.036;5.852;2023-06-14T04:41:55;26.21;36.82
65995;HTU21D;52764;51.036;5.852;2023-06-14T04:44:24;26.89;35.41
65995;HTU21D;52764;51.036;5.852;2023-06-14T04:46:58;27.41;34.45
65995;HTU21D;52764;51.036;5.852;2023-06-14T04:49:24;27.85;33.70
65995;HTU21D;52764;51.036;5.852;2023-06-14T04:51:53;28.20;32.86
65995;HTU21D;52764;51.036;5.852;2023-06-14T04:54:25;28.53;32.21
65995;HTU21D;52764;51.036;5.852;2023-06-14T04:56:51;28.90;31.67
65995;HTU21D;52764;51.036;5.852;2023-06-14T04:59:20;29.22;31.06
65995;HTU21D;52764;51.036;5.852;2023-06-14T05:01:49;29.46;30.48
65995;HTU21D;52764;51.036;5.852;2023-06-14T05:04:16;29.67;29.90
65995;HTU21D;52764;51.036;5.852;2023-06-14T05:06:42;29.90;29.41
65995;HTU21D;52764;51.036;5.852;2023-06-14T05:09:11;30.04;28.96
65995;HTU21D;52764;51.036;5.852;2023-06-14T05:11:37;30.32;28.59
65995;HTU21D;52764;51.036;5.852;2023-06-14T05:14:03;30.60;28.19
65995;HTU21D;52764;51.036;5.852;2023-06-14T05:16:29;30.79;27.62
65995;HTU21D;52764;51.036;5.852;2023-06-14T05:18:55;30.98;27.21
65995;HTU21D;52764;51.036;5.852;2023-06-14T05:21:21;32.39;26.84
65995;HTU21D;52764;51.036;5.852;2023-06-14T05:23:47;31.26;26.71
65995;HTU21D;52764;51.036;5.852;2023-06-14T05:26:13;31.33;26.84
65995;HTU21D;52764;51.036;5.852;2023-06-14T05:28:39;31.60;26.49
65995;HTU21D;52764;51.036;5.852;2023-06-14T05:31:04;31.85;25.94
65995;HTU21D;52764;51.036;5.852;2023-06-14T05:33:30;31.95;25.90
65995;HTU21D;52764;51.036;5.852;2023-06-14T05:35:56;22.80;26.10
65995;HTU21D;52764;51.036;5.852;2023-06-14T05:38:22;32.03;25.64
65995;HTU21D;52764;51.036;5.852;2023-06-14T05:40:47;32.23;25.48
65995;HTU21D;52764;51.036;5.852;2023-06-14T05:43:13;32.45;25.16
65995;HTU21D;52764;51.036;5.852;2023-06-14T05:45:39;32.69;24.66
65995;HTU21D;52764;51.036;5.852;2023-06-14T05:48:05;24.62;24.46
65995;HTU21D;52764;51.036;5.852;2023-06-14T05:50:31;33.04;24.30
65995;HTU21D;52764;51.036;5.852;2023-06-14T05:52:56;33.27;23.84
65995;HTU21D;52764;51.036;5.852;2023-06-14T05:55:22;33.45;23.84
65995;HTU21D;52764;51.036;5.852;2023-06-14T05:57:48;33.65;23.65
65995;HTU21D;52764;51.036;5.852;2023-06-14T06:00:14;33.81;23.56
65995;HTU21D;52764;51.036;5.852;2023-06-14T06:02:43;33.96;23.60
65995;HTU21D;52764;51.036;5.852;2023-06-14T06:05:10;34.24;23.36
65995;HTU21D;52764;51.036;5.852;2023-06-14T06:07:39;34.42;22.95
65995;HTU21D;52764;51.036;5.852;2023-06-14T06:10:10;34.44;22.69
65995;HTU21D;52764;51.036;5.852;2023-06-14T06:12:37;34.40;22.88
65995;HTU21D;52764;51.036;5.852;2023-06-14T06:15:03;34.31;22.92
65995;HTU21D;52764;51.036;5.852;2023-06-14T06:17:29;34.25;22.80
65995;HTU21D;52764;51.036;5.852;2023-06-14T06:19:55;34.35;22.69
65995;HTU21D;52764;51.036;5.852;2023-06-14T06:22:21;34.44;22.38
65995;HTU21D;52764;51.036;5.852;2023-06-14T06:24:47;34.33;22.16
65995;HTU21D;52764;51.036;5.852;2023-06-14T06:27:12;33.88;22.10
65995;HTU21D;52764;51.036;5.852;2023-06-14T06:29:38;32.96;23.01
65995;HTU21D;52764;51.036;5.852;2023-06-14T06:32:04;32.10;24.38
65995;HTU21D;52764;51.036;5.852;2023-06-14T06:34:30;21.53;25.65
65995;HTU21D;52764;51.036;5.852;2023-06-14T06:36:56;31.00;25.82
65995;HTU21D;52764;51.036;5.852;2023-06-14T06:39:22;30.63;26.43
65995;HTU21D;52764;51.036;5.852;2023-06-14T06:41:47;30.21;27.08
65995;HTU21D;52764;51.036;5.852;2023-06-14T06:44:17;30.08;27.63
65995;HTU21D;52764;51.036;5.852;2023-06-14T06:46:48;29.94;27.49
65995;HTU21D;52764;51.036;5.852;2023-06-14T06:49:13;29.81;27.58
65995;HTU21D;52764;51.036;5.852;2023-06-14T06:51:42;30.03;27.31
65995;HTU21D;52764;51.036;5.852;2023-06-14T06:54:09;30.22;26.86
65995;HTU21D;52764;51.036;5.852;2023-06-14T06:56:35;30.48;26.13
65995;HTU21D;52764;51.036;5.852;2023-06-14T06:59:01;30.48;26.00
65995;HTU21D;52764;51.036;5.852;2023-06-14T07:01:27;30.60;25.53
65995;HTU21D;52764;51.036;5.852;2023-06-14T07:03:57;30.89;25.64
65995;HTU21D;52764;51.036;5.852;2023-06-14T07:06:22;30.23;25.76
65995;HTU21D;52764;51.036;5.852;2023-06-14T07:08:52;29.64;26.55
65995;HTU21D;52764;51.036;5.852;2023-06-14T07:11:18;29.51;-3.60
65995;HTU21D;52764;51.036;5.852;2023-06-14T07:13:43;29.41;26.84
65995;HTU21D;52764;51.036;5.852;2023-06-14T07:16:09;29.77;26.07
65995;HTU21D;52764;51.036;5.852;2023-06-14T07:18:35;29.73;26.77
65995;HTU21D;52764;51.036;5.852;2023-06-14T07:21:03;29.31;26.64
65995;HTU21D;52764;51.036;5.852;2023-06-14T07:23:28;29.42;26.62
65995;HTU21D;52764;51.036;5.852;2023-06-14T07:25:54;29.50;28.50
65995;HTU21D;52764;51.036;5.852;2023-06-14T07:28:20;29.82;26.37
65995;HTU21D;52764;51.036;5.852;2023-06-14T07:30:46;30.26;26.49
65995;HTU21D;52764;51.036;5.852;2023-06-14T07:33:13;30.57;25.07
65995;HTU21D;52764;51.036;5.852;2023-06-14T07:35:39;30.67;25.17
65995;HTU21D;52764;51.036;5.852;2023-06-14T07:38:05;30.44;25.30
65995;HTU21D;52764;51.036;5.852;2023-06-14T07:40:31;29.90;26.02
65995;HTU21D;52764;51.036;5.852;2023-06-14T07:42:57;30.11;25.84
65995;HTU21D;52764;51.036;5.852;2023-06-14T07:45:23;30.33;25.57
65995;HTU21D;52764;51.036;5.852;2023-06-14T07:47:48;30.31;25.37
65995;HTU21D;52764;51.036;5.852;2023-06-14T07:50:14;30.37;25.48
65995;HTU21D;52764;51.036;5.852;2023-06-14T07:52:40;30.63;25.20
65995;HTU21D;52764;51.036;5.852;2023-06-14T07:55:06;30.27;25.14
65995;HTU21D;52764;51.036;5.852;2023-06-14T07:57:31;30.34;25.61
65995;HTU21D;52764;51.036;5.852;2023-06-14T07:59:57;30.52;25.46
65995;HTU21D;52764;51.036;5.852;2023-06-14T08:02:23;30.78;25.15
65995;HTU21D;52764;51.036;5.852;2023-06-14T08:04:49;31.12;24.85
65995;HTU21D;52764;51.036;5.852;2023-06-14T08:07:14;30.78;24.40
65995;HTU21D;52764;51.036;5.852;2023-06-14T08:09:40;31.08;24.02
65995;HTU21D;52764;51.036;5.852;2023-06-14T08:12:07;30.82;23.94
65995;HTU21D;52764;51.036;5.852;2023-06-14T08:14:35;30.61;24.34
65995;HTU21D;52764;51.036;5.852;2023-06-14T08:17:01;30.46;24.43
65995;HTU21D;52764;51.036;5.852;2023-06-14T08:19:27;30.02;24.86
65995;HTU21D;52764;51.036;5.852;2023-06-14T08:21:52;29.66;25.29
65995;HTU21D;52764;51.036;5.852;2023-06-14T08:24:23;29.28;25.47
65995;HTU21D;52764;51.036;5.852;2023-06-14T08:26:55;29.53;25.01
65995;HTU21D;52764;51.036;5.852;2023-06-14T08:29:22;30.13;24.34
65995;HTU21D;52764;51.036;5.852;2023-06-14T08:31:48;30.39;23.88
65995;HTU21D;52764;51.036;5.852;2023-06-14T08:34:14;30.35;23.87
65995;HTU21D;52764;51.036;5.852;2023-06-14T08:36:39;30.35;24.17
65995;HTU21D;52764;51.036;5.852;2023-06-14T08:39:06;30.59;23.81
65995;HTU21D;52764;51.036;5.852;2023-06-14T08:41:34;30.90;23.66
65995;HTU21D;52764;51.036;5.852;2023-06-14T08:44:01;31.07;22.93
65995;HTU21D;52764;51.036;5.852;2023-06-14T08:46:26;30.69;23.17
65995;HTU21D;52764;51.036;5.852;2023-06-14T08:48:55;30.75;23.37
65995;HTU21D;52764;51.036;5.852;2023-06-14T08:51:26;31.83;23.46
65995;HTU21D;52764;51.036;5.852;2023-06-14T08:53:59;31.25;22.74
65995;HTU21D;52764;51.036;5.852;2023-06-14T08:56:31;31.38;22.38
65995;HTU21D;52764;51.036;5.852;2023-06-14T08:59:00;31.64;21.62
65995;HTU21D;52764;51.036;5.852;2023-06-14T09:01:36;31.20;22.08
65995;HTU21D;52764;51.036;5.852;2023-06-14T09:04:02;31.34;22.20
65995;HTU21D;52764;51.036;5.852;2023-06-14T09:06:31;31.76;21.05
65995;HTU21D;52764;51.036;5.852;2023-06-14T09:08:57;31.89;20.64
65995;HTU21D;52764;51.036;5.852;2023-06-14T09:11:23;31.58;20.23
65995;HTU21D;52764;51.036;5.852;2023-06-14T09:13:50;30.85;20.72
65995;HTU21D;52764;51.036;5.852;2023-06-14T09:16:16;29.66;22.18
65995;HTU21D;52764;51.036;5.852;2023-06-14T09:18:46;29.05;23.46
65995;HTU21D;52764;51.036;5.852;2023-06-14T09:21:16;29.01;23.66
65995;HTU21D;52764;51.036;5.852;2023-06-14T09:23:44;27.63;23.62
65995;HTU21D;52764;51.036;5.852;2023-06-14T09:26:16;28.50;24.26
65995;HTU21D;52764;51.036;5.852;2023-06-14T09:28:44;28.37;24.30
65995;HTU21D;52764;51.036;5.852;2023-06-14T09:31:11;28.15;25.10
65995;HTU21D;52764;51.036;5.852;2023-06-14T09:33:37;27.97;25.72
65995;HTU21D;52764;51.036;5.852;2023-06-14T09:36:04;28.12;25.88
65995;HTU21D;52764;51.036;5.852;2023-06-14T09:38:34;28.05;25.68
65995;HTU21D;52764;51.036;5.852;2023-06-14T09:41:03;28.03;26.11
65995;HTU21D;52764;51.036;5.852;2023-06-14T09:43:29;27.96;26.22
65995;HTU21D;52764;51.036;5.852;2023-06-14T09:45:55;27.74;26.74
65995;HTU21D;52764;51.036;5.852;2023-06-14T09:48:21;27.76;26.42
65995;HTU21D;52764;51.036;5.852;2023-06-14T09:50:50;27.72;26.21
65995;HTU21D;52764;51.036;5.852;2023-06-14T09:53:21;27.74;26.02
65995;HTU21D;52764;51.036;5.852;2023-06-14T09:55:49;27.80;25.85
65995;HTU21D;52764;51.036;5.852;2023-06-14T09:58:16;28.04;25.49
65995;HTU21D;52764;51.036;5.852;2023-06-14T10:00:47;28.09;25.54
65995;HTU21D;52764;51.036;5.852;2023-06-14T10:03:27;28.17;24.43
65995;HTU21D;52764;51.036;5.852;2023-06-14T10:05:55;28.32;23.81
65995;HTU21D;52764;51.036;5.852;2023-06-14T10:08:30;28.45;23.62
65995;HTU21D;52764;51.036;5.852;2023-06-14T10:10:58;28.33;23.35
65995;HTU21D;52764;51.036;5.852;2023-06-14T10:13:26;28.21;22.78
65995;HTU21D;52764;51.036;5.852;2023-06-14T10:16:05;28.08;22.71
65995;HTU21D;52764;51.036;5.852;2023-06-14T10:18:49;28.21;22.31
65995;HTU21D;52764;51.036;5.852;2023-06-14T10:21:28;28.29;21.47
65995;HTU21D;52764;51.036;5.852;2023-06-14T10:23:57;28.38;21.34
65995;HTU21D;52764;51.036;5.852;2023-06-14T10:26:26;28.31;21.03
65995;HTU21D;52764;51.036;5.852;2023-06-14T10:29:10;28.40;24.86
65995;HTU21D;52764;51.036;5.852;2023-06-14T10:31:59;28.54;20.35
65995;HTU21D;52764;51.036;5.852;2023-06-14T10:34:30;28.38;20.01
65995;HTU21D;52764;51.036;5.852;2023-06-14T10:37:08;28.02;20.54
65995;HTU21D;52764;51.036;5.852;2023-06-14T10:39:39;27.83;20.73
65995;HTU21D;52764;51.036;5.852;2023-06-14T10:42:09;27.81;21.37
65995;HTU21D;52764;51.036;5.852;2023-06-14T10:44:42;27.79;21.54
65995;HTU21D;52764;51.036;5.852;2023-06-14T10:47:29;27.81;21.92
65995;HTU21D;52764;51.036;5.852;2023-06-14T10:52:28;28.02;22.50
65995;HTU21D;52764;51.036;5.852;2023-06-14T10:55:04;28.04;21.91
65995;HTU21D;52764;51.036;5.852;2023-06-14T10:57:35;27.97;22.24
65995;HTU21D;52764;51.036;5.852;2023-06-14T11:00:03;28.04;22.36
65995;HTU21D;52764;51.036;5.852;2023-06-14T11:03:09;28.21;21.55
65995;HTU21D;52764;51.036;5.852;2023-06-14T11:11:17;28.09;22.47
65995;HTU21D;52764;51.036;5.852;2023-06-14T11:13:45;28.14;23.03
65995;HTU21D;52764;51.036;5.852;2023-06-14T11:16:15;28.26;23.24
65995;HTU21D;52764;51.036;5.852;2023-06-14T11:18:42;28.33;23.20
65995;HTU21D;52764;51.036;5.852;2023-06-14T11:21:09;28.23;23.17
65995;HTU21D;52764;51.036;5.852;2023-06-14T11:23:35;28.12;23.94
65995;HTU21D;52764;51.036;5.852;2023-06-14T11:26:01;28.13;23.87
65995;HTU21D;52764;51.036;5.852;2023-06-14T11:28:39;28.12;24.04
65995;HTU21D;52764;51.036;5.852;2023-06-14T11:31:07;28.19;24.11
65995;HTU21D;52764;51.036;5.852;2023-06-14T11:33:33;28.27;23.54
65995;HTU21D;52764;51.036;5.852;2023-06-14T11:36:02;28.20;23.68
65995;HTU21D;52764;51.036;5.852;2023-06-14T11:38:29;28.03;23.90
65995;HTU21D;52764;51.036;5.852;2023-06-14T11:40:59;28.01;23.82
65995;HTU21D;52764;51.036;5.852;2023-06-14T11:43:25;27.89;24.14
65995;HTU21D;52764;51.036;5.852;2023-06-14T11:45:52;27.91;24.08
65995;HTU21D;52764;51.036;5.852;2023-06-14T11:48:18;28.04;24.31
65995;HTU21D;52764;51.036;5.852;2023-06-14T11:50:49;28.06;24.34
65995;HTU21D;52764;51.036;5.852;2023-06-14T11:53:15;27.85;24.57
65995;HTU21D;52764;51.036;5.852;2023-06-14T11:55:42;27.71;25.13
65995;HTU21D;52764;51.036;5.852;2023-06-14T11:58:10;27.87;25.04
65995;HTU21D;52764;51.036;5.852;2023-06-14T12:00:37;27.70;25.43
65995;HTU21D;52764;51.036;5.852;2023-06-14T12:03:03;27.70;25.38
65995;HTU21D;52764;51.036;5.852;2023-06-14T12:05:29;27.76;25.66
65995;HTU21D;52764;51.036;5.852;2023-06-14T12:08:02;27.84;26.49
65995;HTU21D;52764;51.036;5.852;2023-06-14T12:10:42;27.93;26.97
65995;HTU21D;52764;51.036;5.852;2023-06-14T12:13:09;28.01;26.94
65995;HTU21D;52764;51.036;5.852;2023-06-14T12:15:35;28.20;26.63
65995;HTU21D;52764;51.036;5.852;2023-06-14T12:18:05;28.08;26.25
65995;HTU21D;52764;51.036;5.852;2023-06-14T12:20:32;27.88;26.31
65995;HTU21D;52764;51.036;5.852;2023-06-14T12:22:59;27.87;26.11
65995;HTU21D;52764;51.036;5.852;2023-06-14T12:27:58;27.89;26.13
65995;HTU21D;52764;51.036;5.852;2023-06-14T12:30:24;27.81;26.55
65995;HTU21D;52764;51.036;5.852;2023-06-14T12:32:49;27.71;26.98
65995;HTU21D;52764;51.036;5.852;2023-06-14T12:35:17;27.74;26.46
65995;HTU21D;52764;51.036;5.852;2023-06-14T12:37:45;27.67;26.39
65995;HTU21D;52764;51.036;5.852;2023-06-14T12:40:11;27.50;26.17
65995;HTU21D;52764;51.036;5.852;2023-06-14T12:42:37;27.52;26.20
65995;HTU21D;52764;51.036;5.852;2023-06-14T12:45:03;27.57;25.91
65995;HTU21D;52764;51.036;5.852;2023-06-14T12:47:29;27.55;25.50
65995;HTU21D;52764;51.036;5.852;2023-06-14T12:49:55;27.56;25.69
65995;HTU21D;52764;51.036;5.852;2023-06-14T12:52:21;27.61;24.95
65995;HTU21D;52764;51.036;5.852;2023-06-14T12:54:47;27.61;24.57
65995;HTU21D;52764;51.036;5.852;2023-06-14T12:57:13;27.65;25.20
65995;HTU21D;52764;51.036;5.852;2023-06-14T12:59:38;27.59;25.35
65995;HTU21D;52764;51.036;5.852;2023-06-14T13:02:14;27.67;25.43
65995;HTU21D;52764;51.036;5.852;2023-06-14T13:04:40;27.67;25.29
65995;HTU21D;52764;51.036;5.852;2023-06-14T13:07:06;14.24;25.63
65995;HTU21D;52764;51.036;5.852;2023-06-14T13:09:32;27.72;25.14
65995;HTU21D;52764;51.036;5.852;2023-06-14T13:11:58;27.78;25.81
65995;HTU21D;52764;51.036;5.852;2023-06-14T13:14:24;27.81;26.12
65995;HTU21D;52764;51.036;5.852;2023-06-14T13:16:50;27.76;25.50
65995;HTU21D;52764;51.036;5.852;2023-06-14T13:19:15;27.53;25.85
65995;HTU21D;52764;51.036;5.852;2023-06-14T13:21:41;27.50;26.45
65995;HTU21D;52764;51.036;5.852;2023-06-14T13:24:07;27.58;26.42
65995;HTU21D;52764;51.036;5.852;2023-06-14T13:26:34;27.59;25.72
65995;HTU21D;52764;51.036;5.852;2023-06-14T13:28:59;27.28;25.99
65995;HTU21D;52764;51.036;5.852;2023-06-14T13:31:25;27.57;26.48
65995;HTU21D;52764;51.036;5.852;2023-06-14T13:33:51;27.63;26.04
65995;HTU21D;52764;51.036;5.852;2023-06-14T13:36:17;27.69;25.24
65995;HTU21D;52764;51.036;5.852;2023-06-14T13:38:43;27.71;24.99
65995;HTU21D;52764;51.036;5.852;2023-06-14T13:41:08;27.82;24.85
65995;HTU21D;52764;51.036;5.852;2023-06-14T13:43:34;27.80;24.27
65995;HTU21D;52764;51.036;5.852;2023-06-14T13:45:59;27.67;24.93
65995;HTU21D;52764;51.036;5.852;2023-06-14T13:48:26;27.80;24.79
65995;HTU21D;52764;51.036;5.852;2023-06-14T13:50:51;27.81;24.50
65995;HTU21D;52764;51.036;5.852;2023-06-14T13:53:17;27.67;24.72
65995;HTU21D;52764;51.036;5.852;2023-06-14T13:55:43;25.03;24.61
65995;HTU21D;52764;51.036;5.852;2023-06-14T13:58:09;27.41;24.15
65995;HTU21D;52764;51.036;5.852;2023-06-14T14:00:35;27.31;24.35
65995;HTU21D;52764;51.036;5.852;2023-06-14T14:03:06;27.42;24.87
65995;HTU21D;52764;51.036;5.852;2023-06-14T14:05:32;27.59;25.06
65995;HTU21D;52764;51.036;5.852;2023-06-14T14:07:58;27.73;25.07
65995;HTU21D;52764;51.036;5.852;2023-06-14T14:10:25;27.88;24.94
65995;HTU21D;52764;51.036;5.852;2023-06-14T14:12:51;28.02;24.98
65995;HTU21D;52764;51.036;5.852;2023-06-14T14:15:18;27.94;25.07
65995;HTU21D;52764;51.036;5.852;2023-06-14T14:17:44;27.83;24.52
65995;HTU21D;52764;51.036;5.852;2023-06-14T14:20:10;27.67;25.24
65995;HTU21D;52764;51.036;5.852;2023-06-14T14:22:44;27.45;26.18
65995;HTU21D;52764;51.036;5.852;2023-06-14T14:25:10;25.01;26.65
65995;HTU21D;52764;51.036;5.852;2023-06-14T14:27:39;27.63;26.65
65995;HTU21D;52764;51.036;5.852;2023-06-14T14:30:05;27.72;26.78
65995;HTU21D;52764;51.036;5.852;2023-06-14T14:32:31;27.72;26.52
65995;HTU21D;52764;51.036;5.852;2023-06-14T14:34:57;27.69;26.74
65995;HTU21D;52764;51.036;5.852;2023-06-14T14:37:23;27.64;26.65
65995;HTU21D;52764;51.036;5.852;2023-06-14T14:39:49;27.46;26.69
65995;HTU21D;52764;51.036;5.852;2023-06-14T14:42:15;27.39;26.68
65995;HTU21D;52764;51.036;5.852;2023-06-14T14:44:40;27.54;26.58
65995;HTU21D;52764;51.036;5.852;2023-06-14T14:47:06;27.64;26.80
65995;HTU21D;52764;51.036;5.852;2023-06-14T14:49:32;27.69;26.39
65995;HTU21D;52764;51.036;5.852;2023-06-14T14:51:58;27.63;26.14
65995;HTU21D;52764;51.036;5.852;2023-06-14T14:54:24;27.78;25.77
65995;HTU21D;52764;51.036;5.852;2023-06-14T14:56:51;27.80;26.12
65995;HTU21D;52764;51.036;5.852;2023-06-14T14:59:17;27.71;26.71
65995;HTU21D;52764;51.036;5.852;2023-06-14T15:01:44;27.80;27.14
65995;HTU21D;52764;51.036;5.852;2023-06-14T15:04:11;27.93;27.12
65995;HTU21D;52764;51.036;5.852;2023-06-14T15:06:37;28.04;26.81
65995;HTU21D;52764;51.036;5.852;2023-06-14T15:09:05;28.02;26.99
65995;HTU21D;52764;51.036;5.852;2023-06-14T15:11:31;27.98;26.94
65995;HTU21D;52764;51.036;5.852;2023-06-14T15:13:57;27.91;27.02
65995;HTU21D;52764;51.036;5.852;2023-06-14T15:16:23;27.76;27.03
65995;HTU21D;52764;51.036;5.852;2023-06-14T15:18:49;27.72;27.71
65995;HTU21D;52764;51.036;5.852;2023-06-14T15:21:15;27.72;27.47
65995;HTU21D;52764;51.036;5.852;2023-06-14T15:23:41;27.64;27.32
65995;HTU21D;52764;51.036;5.852;2023-06-14T15:26:06;27.69;27.69
65995;HTU21D;52764;51.036;5.852;2023-06-14T15:28:32;27.66;27.74
65995;HTU21D;52764;51.036;5.852;2023-06-14T15:30:59;27.58;27.84
65995;HTU21D;52764;51.036;5.852;2023-06-14T15:33:25;27.53;28.21
65995;HTU21D;52764;51.036;5.852;2023-06-14T15:35:51;27.49;28.23
65995;HTU21D;52764;51.036;5.852;2023-06-14T15:38:17;27.56;28.03